Time;durP1;ratioP1;P1;durP2;ratioP2;P2;SDS_P1;SDS_P2;PMS_P1;PMS_P2;Temp;Humidity;BMP_temperature;BMP_pressure;BME280_temperature;BME280_humidity;BME280_pressure;Samples;Min_cycle;Max_cycle;Signal;HPM_P1;HPM_P2
2021/12/04 00:02:05;;;;;;;4.23;3.93;;;;;;;-1.87;73.20;100416.91;6339697;28;20481;-76
2021/12/04 00:05:09;;;;;;;4.80;4.30;;;;;;;-1.88;73.53;100412.56;6339394;28;20239;-75
2021/12/04 00:08:15;;;;;;;4.53;4.23;;;;;;;-1.89;74.04;100408.19;6340652;28;20186;-76
2021/12/04 00:11:19;;;;;;;4.10;3.63;;;;;;;-1.96;72.72;100401.75;6339039;28;20241;-75
2021/12/04 00:14:25;;;;;;;4.53;4.13;;;;;;;-1.76;72.55;100419.41;6340134;28;20186;-75
2021/12/04 00:17:30;;;;;;;6.57;3.97;;;;;;;-1.70;72.24;100416.13;6340192;28;20185;-75
2021/12/04 00:20:35;;;;;;;9.73;4.40;;;;;;;-1.54;73.14;100424.34;6339020;28;20186;-75
2021/12/04 00:23:39;;;;;;;6.63;4.03;;;;;;;-1.74;72.06;100409.38;6338865;28;20549;-75
2021/12/04 00:26:44;;;;;;;4.23;3.73;;;;;;;-1.75;72.02;100426.44;6339781;28;20583;-75
2021/12/04 00:29:50;;;;;;;6.97;3.90;;;;;;;-1.77;72.42;100415.03;6321182;28;20199;-75
2021/12/04 00:32:58;;;;;;;5.90;3.83;;;;;;;-1.87;71.68;100414.22;6339574;28;20276;-75
2021/12/04 00:36:05;;;;;;;8.53;3.93;;;;;;;-1.77;72.61;100416.88;6339658;28;20265;-75
2021/12/04 00:49:18;;;;;;;4.97;4.17;;;;;;;-2.08;73.03;100421.66;6339264;28;20186;-75
2021/12/04 00:52:22;;;;;;;3.93;3.50;;;;;;;-2.21;73.33;100421.13;6338521;28;20287;-74
2021/12/04 00:55:26;;;;;;;3.93;3.47;;;;;;;-2.18;73.85;100424.34;6339166;28;20186;-74
2021/12/04 00:58:31;;;;;;;4.07;3.73;;;;;;;-2.31;74.84;100436.34;6339486;28;20186;-74
2021/12/04 01:01:39;;;;;;;4.17;3.87;;;;;;;-2.30;75.22;100427.34;6337929;28;20476;-74
2021/12/04 01:04:44;;;;;;;6.20;3.60;;;;;;;-2.00;73.35;100432.44;6337641;28;20527;-74
2021/12/04 01:07:48;;;;;;;6.63;3.83;;;;;;;-2.17;73.37;100428.72;6338919;28;20193;-74
2021/12/04 01:10:52;;;;;;;4.27;3.87;;;;;;;-2.30;73.82;100430.00;6337730;28;20425;-74
2021/12/04 01:13:57;;;;;;;4.57;3.77;;;;;;;-2.11;73.24;100425.47;6338018;28;20217;-74
2021/12/04 01:17:03;;;;;;;5.03;3.60;;;;;;;-2.05;72.37;100438.22;6338539;28;20184;-74
2021/12/04 01:20:10;;;;;;;5.57;4.03;;;;;;;-2.41;72.52;100430.19;6338609;28;20217;-74
2021/12/04 01:23:16;;;;;;;4.00;3.60;;;;;;;-2.17;72.06;100441.22;6338285;28;20190;-75
2021/12/04 01:26:20;;;;;;;8.50;3.90;;;;;;;-2.13;72.35;100427.41;6337928;28;20560;-74
2021/12/04 01:29:25;;;;;;;3.93;3.67;;;;;;;-2.18;72.27;100445.72;6338340;28;20186;-74
2021/12/04 01:32:31;;;;;;;3.90;3.63;;;;;;;-2.12;71.71;100441.63;6338105;28;20322;-74
2021/12/04 01:35:35;;;;;;;4.60;3.90;;;;;;;-2.10;71.88;100439.66;6337004;28;20217;-74
2021/12/04 01:38:40;;;;;;;5.23;3.80;;;;;;;-2.28;72.37;100449.41;6337088;28;20415;-74
2021/12/04 01:41:44;;;;;;;5.13;3.43;;;;;;;-2.35;72.67;100442.97;6337135;28;20438;-74
2021/12/04 01:44:48;;;;;;;4.00;3.60;;;;;;;-2.22;73.72;100451.50;6337898;28;20266;-75
2021/12/04 01:47:59;;;;;;;4.17;3.73;;;;;;;-2.04;73.70;100452.44;6337895;28;20216;-74
2021/12/04 01:51:04;;;;;;;6.20;3.63;;;;;;;-2.12;74.13;100449.66;6337884;28;20220;-75
2021/12/04 01:54:09;;;;;;;3.80;3.50;;;;;;;-2.06;74.21;100446.41;6337757;28;20270;-74
2021/12/04 01:57:14;;;;;;;4.17;3.00;;;;;;;-2.02;74.20;100453.13;6336640;28;20185;-74
2021/12/04 02:00:19;;;;;;;4.37;3.97;;;;;;;-2.09;74.97;100444.88;6338117;28;20185;-74
2021/12/04 02:03:25;;;;;;;8.63;3.53;;;;;;;-2.12;75.40;100444.31;6336477;28;20265;-74
2021/12/04 02:06:30;;;;;;;3.77;3.40;;;;;;;-2.07;75.80;100447.38;6337428;28;20185;-74
2021/12/04 02:09:36;;;;;;;3.80;3.47;;;;;;;-2.02;76.14;100453.13;6336452;28;20254;-74
2021/12/04 02:12:40;;;;;;;6.83;3.30;;;;;;;-1.96;75.73;100452.56;6336393;28;20450;-74
2021/12/04 02:15:46;;;;;;;3.93;3.63;;;;;;;-1.89;76.08;100445.63;6337330;28;20257;-74
2021/12/04 02:18:52;;;;;;;4.17;3.67;;;;;;;-2.02;76.30;100461.16;6336428;28;20484;-75
2021/12/04 02:21:57;;;;;;;8.07;3.63;;;;;;;-1.99;76.34;100455.53;6336290;28;20208;-75
2021/12/04 02:25:01;;;;;;;5.73;3.73;;;;;;;-1.84;75.34;100464.75;6333892;28;20233;-75
2021/12/04 02:28:08;;;;;;;4.07;3.60;;;;;;;-1.74;76.12;100457.53;6311126;28;20191;-75
2021/12/04 02:31:13;;;;;;;3.67;3.47;;;;;;;-1.78;76.00;100448.13;6311082;28;20384;-74
2021/12/04 02:34:22;;;;;;;3.60;3.40;;;;;;;-1.77;76.45;100455.13;6311982;28;20217;-74
2021/12/04 02:37:27;;;;;;;4.43;3.60;;;;;;;-1.84;76.59;100448.72;6312109;28;20183;-74
2021/12/04 02:40:31;;;;;;;3.53;3.33;;;;;;;-1.71;75.65;100451.88;6311562;28;20251;-75
2021/12/04 02:43:36;;;;;;;3.20;3.00;;;;;;;-1.82;76.07;100446.72;6311838;28;20218;-75
2021/12/04 02:46:40;;;;;;;3.53;3.23;;;;;;;-1.78;76.69;100448.13;6312151;28;20261;-74
2021/12/04 02:49:45;;;;;;;3.47;3.27;;;;;;;-1.73;75.93;100451.19;6310717;28;20186;-74
2021/12/04 02:52:50;;;;;;;3.53;3.30;;;;;;;-1.75;76.50;100453.19;6312130;28;20197;-75
2021/12/04 02:55:55;;;;;;;4.20;2.93;;;;;;;-1.82;76.10;100448.56;6310746;28;20491;-75
2021/12/04 02:59:02;;;;;;;3.10;3.00;;;;;;;-1.67;75.82;100450.59;6310715;28;20390;-75
2021/12/04 03:02:07;;;;;;;3.30;3.17;;;;;;;-1.70;75.75;100448.22;6310616;28;20240;-74
2021/12/04 03:05:12;;;;;;;3.30;3.10;;;;;;;-1.67;75.64;100455.94;6311463;28;20191;-74
2021/12/04 03:08:19;;;;;;;2.97;2.87;;;;;;;-1.57;75.47;100456.75;6313310;28;20192;-75
2021/12/04 03:11:23;;;;;;;6.83;3.37;;;;;;;-1.74;75.74;100454.84;6315833;28;20191;-74
2021/12/04 03:14:27;;;;;;;4.00;3.00;;;;;;;-1.68;75.86;100454.28;6315423;28;20546;-75
2021/12/04 03:17:31;;;;;;;3.77;3.20;;;;;;;-1.59;75.48;100453.38;6316107;28;20183;-74
2021/12/04 03:20:41;;;;;;;3.17;3.07;;;;;;;-1.98;76.44;100467.91;6315948;28;20187;-74
2021/12/04 03:23:54;;;;;;;3.17;3.00;;;;;;;-1.95;77.06;100462.25;6316357;28;20195;-74
2021/12/04 03:26:59;;;;;;;3.83;3.53;;;;;;;-1.96;77.73;100455.22;6334699;28;20401;-74
2021/12/04 03:30:07;;;;;;;3.57;3.27;;;;;;;-1.98;77.21;100454.53;6340597;28;20262;-74
2021/12/04 03:40:06;;;;;;;3.70;3.10;;;;;;;-1.60;75.34;100467.75;6340880;28;20250;-75
2021/12/04 03:43:13;;;;;;;4.07;3.13;;;;;;;-1.67;76.06;100469.31;6340990;28;20185;-75
2021/12/04 03:46:19;;;;;;;2.97;2.87;;;;;;;-1.70;75.89;100466.97;6339945;28;20469;-74
2021/12/04 03:49:23;;;;;;;3.40;3.20;;;;;;;-1.65;74.81;100475.38;6339773;28;20190;-74
2021/12/04 03:52:28;;;;;;;3.83;3.07;;;;;;;-1.51;74.68;100477.56;6339865;28;20352;-74
2021/12/04 03:55:34;;;;;;;3.27;3.07;;;;;;;-1.62;74.16;100475.09;6339629;28;20529;-75
2021/12/04 03:58:39;;;;;;;3.10;3.00;;;;;;;-1.54;73.44;100472.50;6340890;28;20267;-74
2021/12/04 04:01:43;;;;;;;2.97;2.87;;;;;;;-1.60;73.08;100478.44;6339547;28;20259;-74
2021/12/04 04:04:47;;;;;;;3.63;2.93;;;;;;;-1.56;73.52;100478.97;6339689;28;20190;-75
2021/12/04 04:07:53;;;;;;;3.17;3.03;;;;;;;-1.65;73.70;100483.41;6340565;28;20187;-74
2021/12/04 04:10:59;;;;;;;3.30;3.00;;;;;;;-1.56;73.09;100479.81;6339273;28;20304;-75
2021/12/04 04:14:03;;;;;;;2.93;2.83;;;;;;;-1.66;73.48;100479.03;6339225;28;20447;-75
2021/12/04 04:17:07;;;;;;;3.63;2.87;;;;;;;-1.70;74.04;100483.00;6339064;28;20501;-75
2021/12/04 04:20:15;;;;;;;2.93;2.83;;;;;;;-1.80;73.63;100476.84;6338411;28;20381;-74
2021/12/04 04:23:20;;;;;;;2.90;2.80;;;;;;;-1.76;74.60;100478.22;6339222;28;20191;-74
2021/12/04 04:26:25;;;;;;;3.27;3.07;;;;;;;-1.66;73.60;100494.22;6339263;28;20234;-74
2021/12/04 04:29:30;;;;;;;3.00;2.80;;;;;;;-1.55;73.58;100489.56;6338686;28;20466;-74
2021/12/04 04:32:34;;;;;;;3.63;2.70;;;;;;;-1.78;74.73;100484.72;6340005;28;20193;-74
2021/12/04 04:35:39;;;;;;;2.70;2.60;;;;;;;-1.94;74.87;100501.38;6340050;28;20241;-75
2021/12/04 04:38:49;;;;;;;3.10;2.90;;;;;;;-1.84;74.91;100488.81;6338362;28;20501;-75
2021/12/04 04:58:53;;;;;;;3.07;2.87;;;;;;;-2.05;76.04;100514.91;6339372;28;20261;-75
2021/12/04 05:12:35;;;;;;;2.70;2.50;;;;;;;-2.15;75.30;100532.78;6302841;28;20277;-74
2021/12/04 05:15:53;;;;;;;2.87;2.67;;;;;;;-2.16;74.90;100539.13;6338463;28;20241;-74
2021/12/04 05:19:00;;;;;;;2.57;2.47;;;;;;;-2.20;75.42;100538.56;6338569;28;20304;-74
2021/12/04 05:22:11;;;;;;;2.90;2.80;;;;;;;-1.93;74.06;100540.50;6337519;28;20220;-75
2021/12/04 05:25:16;;;;;;;2.83;2.43;;;;;;;-1.93;72.90;100535.16;6337444;28;20387;-75
2021/12/04 05:28:35;;;;;;;2.20;2.10;;;;;;;-1.87;72.81;100549.78;6336732;28;20201;-74
2021/12/04 05:31:41;;;;;;;2.43;2.17;;;;;;;-1.99;73.30;100546.41;6336938;28;20476;-74
2021/12/04 05:34:45;;;;;;;4.10;2.90;;;;;;;-2.03;72.95;100550.38;6338470;28;20222;-74
2021/12/04 05:37:50;;;;;;;2.30;2.30;;;;;;;-1.83;72.21;100557.38;6338471;28;20186;-74
2021/12/04 05:40:54;;;;;;;4.97;2.63;;;;;;;-1.82;71.78;100556.34;6338452;28;20191;-74
2021/12/04 05:44:04;;;;;;;2.50;2.30;;;;;;;-1.93;72.38;100552.00;6338480;28;20198;-75
2021/12/04 05:47:19;;;;;;;2.20;2.10;;;;;;;-1.72;71.27;100559.84;6337356;28;20186;-74
2021/12/04 05:50:39;;;;;;;2.10;2.10;;;;;;;-1.75;71.29;100554.81;6336892;28;20483;-75
2021/12/04 05:53:55;;;;;;;2.63;2.53;;;;;;;-1.99;72.14;100557.97;6338071;28;20185;-76
2021/12/04 05:57:00;;;;;;;2.43;2.33;;;;;;;-2.14;72.03;100555.88;6336699;28;20401;-75
2021/12/04 06:00:06;;;;;;;2.40;2.30;;;;;;;-2.07;72.29;100562.31;6338158;28;20186;-75
2021/12/04 06:03:18;;;;;;;2.20;2.10;;;;;;;-2.13;71.88;100570.94;6336629;28;20380;-74
2021/12/04 06:06:22;;;;;;;2.40;2.30;;;;;;;-2.19;72.41;100566.16;6337141;28;20190;-75
2021/12/04 06:09:27;;;;;;;2.10;2.07;;;;;;;-2.24;71.73;100573.75;6336560;28;20296;-74
2021/12/04 06:12:32;;;;;;;2.20;2.10;;;;;;;-2.32;72.58;100578.94;6337055;28;20477;-74
2021/12/04 06:15:36;;;;;;;2.50;2.40;;;;;;;-2.37;72.50;100567.84;6337931;28;20292;-75
2021/12/04 06:18:45;;;;;;;1.87;1.87;;;;;;;-2.25;72.37;100567.53;6337725;28;20223;-74
2021/12/04 06:25:11;;;;;;;2.00;2.00;;;;;;;-1.85;69.85;100580.75;6314240;28;20523;-74
2021/12/04 06:28:16;;;;;;;2.50;2.30;;;;;;;-1.82;69.88;100579.59;6337304;28;20186;-75
2021/12/04 06:31:21;;;;;;;2.03;1.90;;;;;;;-1.72;70.30;100589.25;6337247;28;20188;-74
2021/12/04 06:34:27;;;;;;;1.90;1.80;;;;;;;-1.77;69.70;100588.84;6337116;28;20192;-74
2021/12/04 06:37:32;;;;;;;2.17;2.17;;;;;;;-1.84;70.39;100595.78;6337094;28;20220;-75
2021/12/04 06:40:36;;;;;;;1.80;1.80;;;;;;;-1.80;70.35;100589.16;6336587;28;20184;-76
2021/12/04 06:43:46;;;;;;;2.10;2.10;;;;;;;-1.80;69.77;100599.88;6340321;28;20288;-74
2021/12/04 06:46:50;;;;;;;2.07;2.07;;;;;;;-1.77;69.52;100599.56;6342152;28;20221;-74
2021/12/04 06:50:03;;;;;;;2.20;2.10;;;;;;;-1.63;68.73;100612.50;6342522;28;20186;-74
2021/12/04 06:53:18;;;;;;;1.90;1.90;;;;;;;-1.81;69.52;100614.22;6342329;28;20185;-75
2021/12/04 06:56:23;;;;;;;2.10;2.10;;;;;;;-1.97;69.32;100605.91;6342154;28;20213;-74
2021/12/04 06:59:30;;;;;;;2.10;2.10;;;;;;;-1.84;69.73;100614.50;6341741;28;20186;-74
2021/12/04 07:02:34;;;;;;;2.27;2.07;;;;;;;-2.05;70.51;100621.81;6342169;28;20192;-74
2021/12/04 07:05:40;;;;;;;5.47;2.17;;;;;;;-2.00;69.39;100614.22;6340783;28;20479;-75
2021/12/04 07:08:44;;;;;;;2.23;2.13;;;;;;;-2.04;69.63;100612.84;6341326;28;20190;-75
2021/12/04 07:11:49;;;;;;;2.13;2.13;;;;;;;-2.07;70.10;100613.13;6341835;28;20244;-75
2021/12/04 07:14:53;;;;;;;2.00;1.90;;;;;;;-2.17;70.09;100617.63;6341934;28;20190;-74
2021/12/04 07:17:58;;;;;;;1.87;1.87;;;;;;;-2.04;69.64;100624.38;6340444;28;20213;-74
2021/12/04 07:21:04;;;;;;;2.10;2.00;;;;;;;-1.95;69.84;100617.31;6341913;28;20186;-76
2021/12/04 07:24:12;;;;;;;1.70;1.60;;;;;;;-1.87;68.95;100625.47;6340962;28;20285;-75
2021/12/04 07:27:17;;;;;;;1.73;1.73;;;;;;;-1.93;69.19;100626.06;6319043;28;20473;-75
2021/12/04 07:30:22;;;;;;;1.93;1.80;;;;;;;-2.01;69.40;100633.94;6316600;28;20217;-75
2021/12/04 07:33:27;;;;;;;2.57;2.10;;;;;;;-1.92;69.82;100633.06;6314852;28;20504;-75
2021/12/04 07:36:33;;;;;;;1.97;1.90;;;;;;;-1.86;69.15;100639.69;6315361;28;20214;-76
2021/12/04 07:39:37;;;;;;;1.87;1.77;;;;;;;-1.84;68.66;100641.25;6316007;28;20190;-76
2021/12/04 07:42:42;;;;;;;1.70;1.70;;;;;;;-2.03;69.75;100641.25;6314802;28;20450;-76
2021/12/04 07:45:46;;;;;;;2.10;1.90;;;;;;;-2.15;69.97;100648.56;6316137;28;20190;-76
2021/12/04 07:48:51;;;;;;;2.07;1.93;;;;;;;-1.91;68.93;100646.31;6315823;28;20197;-75
2021/12/04 07:51:56;;;;;;;2.30;2.17;;;;;;;-1.93;69.86;100647.44;6315305;28;20250;-75
2021/12/04 07:55:01;;;;;;;2.30;1.80;;;;;;;-2.03;69.81;100651.97;6313754;28;20536;-75
2021/12/04 07:58:06;;;;;;;2.00;2.00;;;;;;;-2.12;70.45;100658.13;6315155;28;20210;-75
2021/12/04 08:01:12;;;;;;;2.20;2.10;;;;;;;-2.06;70.08;100649.56;6315359;28;20225;-76
2021/12/04 08:04:17;;;;;;;2.10;2.10;;;;;;;-2.03;70.13;100657.31;6314153;28;20478;-76
2021/12/04 08:07:22;;;;;;;2.10;2.10;;;;;;;-2.24;71.10;100653.91;6315544;28;20312;-76
2021/12/04 08:10:26;;;;;;;2.00;1.90;;;;;;;-2.20;70.86;100663.34;6315015;28;20232;-76
2021/12/04 08:13:31;;;;;;;2.23;2.13;;;;;;;-2.36;71.84;100649.69;6314970;28;20189;-76
2021/12/04 08:16:35;;;;;;;2.47;2.27;;;;;;;-2.17;71.79;100655.88;6315266;28;20215;-75
2021/12/04 08:19:40;;;;;;;2.13;2.03;;;;;;;-2.13;71.40;100661.81;6315041;28;20187;-76
2021/12/04 08:22:46;;;;;;;1.80;1.80;;;;;;;-2.00;71.36;100668.53;6314308;28;20185;-75
2021/12/04 08:25:50;;;;;;;1.90;1.90;;;;;;;-1.98;70.42;100655.06;6314290;28;20238;-74
2021/12/04 08:28:55;;;;;;;2.03;2.03;;;;;;;-2.07;71.15;100662.06;6314898;28;20191;-75
2021/12/04 08:31:59;;;;;;;2.63;2.20;;;;;;;-2.07;71.60;100666.56;6313715;28;20184;-75
2021/12/04 08:35:05;;;;;;;1.90;1.90;;;;;;;-2.11;71.04;100659.84;6314381;28;20262;-75
2021/12/04 08:38:13;;;;;;;3.60;2.37;;;;;;;-1.93;70.68;100668.84;6314637;28;20214;-73
2021/12/04 08:41:19;;;;;;;3.70;2.47;;;;;;;-2.05;71.94;100664.59;6314585;28;20186;-75
2021/12/04 08:44:23;;;;;;;2.47;2.37;;;;;;;-2.03;71.76;100668.81;6313299;28;20474;-75
2021/12/04 08:47:28;;;;;;;2.50;2.40;;;;;;;-1.88;71.67;100677.28;6314240;28;20190;-75
2021/12/04 08:50:33;;;;;;;2.13;1.97;;;;;;;-1.88;70.63;100677.28;6314115;28;20253;-75
2021/12/04 08:53:40;;;;;;;2.37;2.27;;;;;;;-1.72;70.78;100682.06;6312858;28;20427;-75
2021/12/04 08:56:45;;;;;;;2.10;2.10;;;;;;;-1.71;71.17;100684.59;6312804;28;20561;-76
2021/12/04 08:59:50;;;;;;;3.13;2.40;;;;;;;-1.63;70.49;100686.53;6312743;28;20518;-75
2021/12/04 09:02:54;;;;;;;2.73;2.50;;;;;;;-1.84;71.27;100689.38;6313652;28;20193;-75
2021/12/04 09:06:00;;;;;;;2.90;2.70;;;;;;;-2.01;71.61;100692.75;6311764;28;20187;-75
2021/12/04 09:09:08;;;;;;;2.53;2.37;;;;;;;-1.92;72.52;100691.91;6313666;28;20190;-75
2021/12/04 09:12:14;;;;;;;2.50;2.40;;;;;;;-1.83;71.66;100685.72;6312428;28;20425;-75
2021/12/04 09:15:22;;;;;;;2.43;2.43;;;;;;;-1.77;71.41;100700.38;6313822;28;20194;-79
2021/12/04 09:18:27;;;;;;;2.63;2.53;;;;;;;-2.03;72.51;100700.09;6313619;28;20215;-74
2021/12/04 09:21:35;;;;;;;2.50;2.40;;;;;;;-2.07;73.16;100704.00;6313001;28;20190;-74
2021/12/04 09:24:43;;;;;;;2.40;2.30;;;;;;;-1.83;72.59;100696.41;6312052;28;20185;-75
2021/12/04 09:28:00;;;;;;;2.07;1.97;;;;;;;-1.97;73.09;100699.50;6312252;28;20377;-74
2021/12/04 10:01:22;;;;;;;3.17;2.70;;;;;;;-1.37;75.04;100720.59;6312520;28;20187;-75
2021/12/04 10:11:47;;;;;;;2.50;2.30;;;;;;;-1.41;74.68;100708.47;6312371;28;20187;-76
2021/12/04 10:18:51;;;;;;;2.57;2.40;;;;;;;-1.13;74.77;100732.66;6310690;28;20297;-76
2021/12/04 10:22:16;;;;;;;2.50;2.40;;;;;;;-1.23;74.84;100729.16;6311322;28;20218;-76
2021/12/04 10:32:30;;;;;;;3.97;2.70;;;;;;;-1.37;77.10;100731.31;6312503;28;20186;-76
2021/12/04 10:35:35;;;;;;;6.40;2.87;;;;;;;-1.34;77.58;100725.66;6294244;28;20386;-76
2021/12/04 10:38:42;;;;;;;2.83;2.70;;;;;;;-1.29;77.49;100728.75;6311989;28;20278;-77
2021/12/04 10:41:48;;;;;;;2.90;2.80;;;;;;;-1.22;77.23;100738.88;6311994;28;20187;-76
2021/12/04 10:44:54;;;;;;;3.00;2.80;;;;;;;-1.33;77.84;100732.69;6312492;28;20219;-76
2021/12/04 10:48:02;;;;;;;2.37;2.27;;;;;;;-1.12;77.43;100739.69;6312188;28;20198;-75
2021/12/04 10:51:19;;;;;;;2.37;2.27;;;;;;;-1.14;77.40;100739.84;6312424;28;20266;-76
2021/12/04 10:54:27;;;;;;;2.63;2.53;;;;;;;-1.06;77.19;100744.47;6312119;28;20187;-75
2021/12/04 10:58:05;;;;;;;2.50;2.40;;;;;;;-1.02;77.99;100745.88;6311973;28;20278;-75
2021/12/04 11:01:25;;;;;;;2.47;2.37;;;;;;;-1.11;77.29;100747.59;6310752;28;20502;-74
2021/12/04 11:04:39;;;;;;;2.13;2.13;;;;;;;-0.97;77.48;100748.94;6310517;28;20478;-75
2021/12/04 11:38:48;;;;;;;2.60;2.40;;;;;;;-0.99;77.46;100761.66;6342591;28;20217;-77
2021/12/04 11:42:06;;;;;;;2.70;2.50;;;;;;;-0.93;76.80;100777.16;6322969;28;20511;-77
2021/12/04 11:45:16;;;;;;;2.20;2.20;;;;;;;-0.87;77.17;100771.19;6341247;28;20184;-76
2021/12/04 11:48:29;;;;;;;2.93;2.70;;;;;;;-0.64;76.52;100767.16;6340796;28;20254;-75
2021/12/04 11:51:34;;;;;;;2.50;2.40;;;;;;;-0.56;76.18;100775.31;6341255;28;20184;-75
2021/12/04 11:54:47;;;;;;;2.67;2.10;;;;;;;-0.51;75.47;100772.22;6341138;28;20250;-75
2021/12/04 11:57:52;;;;;;;4.63;2.20;;;;;;;-0.55;76.11;100782.38;6339385;28;20193;-75
2021/12/04 12:00:59;;;;;;;1.50;1.50;;;;;;;-0.52;75.75;100774.06;6339586;28;20470;-75
2021/12/04 12:04:07;;;;;;;2.67;1.70;;;;;;;-0.43;74.71;100783.03;6340007;28;20183;-75
2021/12/04 12:07:16;;;;;;;2.17;2.07;;;;;;;-0.24;74.25;100781.13;6339377;28;20482;-75
2021/12/04 12:10:25;;;;;;;2.00;2.00;;;;;;;-0.29;74.45;100774.50;6339250;28;20378;-76
2021/12/04 12:13:34;;;;;;;1.97;1.97;;;;;;;-0.32;75.21;100783.69;6340429;28;20196;-75
2021/12/04 12:16:46;;;;;;;2.23;1.87;;;;;;;-0.23;74.42;100788.16;6340124;28;20215;-75
2021/12/04 12:19:53;;;;;;;2.20;2.10;;;;;;;-0.27;73.88;100786.75;6339431;28;20301;-75
2021/12/04 12:23:04;;;;;;;2.30;2.20;;;;;;;-0.20;73.14;100809.31;6339832;28;20186;-75
2021/12/04 12:26:29;;;;;;;1.87;1.87;;;;;;;-0.23;72.72;100798.06;6340133;28;20275;-75
2021/12/04 12:33:15;;;;;;;2.27;2.27;;;;;;;-0.16;72.54;100794.63;6338803;28;20403;-74
2021/12/04 12:36:23;;;;;;;1.90;1.90;;;;;;;-0.23;71.80;100803.41;6339708;28;20252;-75
2021/12/04 12:39:27;;;;;;;2.43;2.33;;;;;;;-0.36;72.03;100809.09;6340068;28;20211;-75
2021/12/04 12:42:36;;;;;;;2.07;2.07;;;;;;;-0.36;72.41;100819.81;6341454;28;20252;-75
2021/12/04 12:45:51;;;;;;;1.93;1.87;;;;;;;-0.27;71.89;100816.25;6341565;28;20184;-75
2021/12/04 12:48:56;;;;;;;2.50;2.43;;;;;;;-0.29;72.35;100826.28;6338424;28;20496;-75
2021/12/04 12:52:04;;;;;;;2.53;2.40;;;;;;;-0.41;72.29;100827.44;6339171;28;20247;-75
2021/12/04 12:55:11;;;;;;;2.50;2.30;;;;;;;-0.52;71.90;100838.38;6338348;28;20259;-75
2021/12/04 12:58:20;;;;;;;1.97;1.87;;;;;;;-0.64;72.22;100831.47;6339177;28;20186;-75
2021/12/04 13:11:56;;;;;;;1.80;1.80;;;;;;;-0.59;71.77;100834.56;6338422;28;20215;-75
2021/12/04 13:15:02;;;;;;;2.03;1.97;;;;;;;-0.80;72.18;100842.81;6337366;28;20381;-75
2021/12/04 13:18:16;;;;;;;2.07;1.97;;;;;;;-0.77;71.31;100853.22;6337546;28;20263;-75
2021/12/04 13:21:20;;;;;;;2.13;1.97;;;;;;;-0.72;71.43;100847.44;6338187;28;20219;-75
2021/12/04 13:24:27;;;;;;;2.37;2.17;;;;;;;-0.95;71.22;100859.47;6339219;28;20186;-76
2021/12/04 13:30:44;;;;;;;1.97;1.97;;;;;;;-0.81;70.74;100856.34;6337453;28;20477;-74
2021/12/04 13:33:51;;;;;;;2.13;1.93;;;;;;;-0.91;70.56;100858.19;6338454;28;20190;-75
2021/12/04 13:36:58;;;;;;;2.30;2.20;;;;;;;-0.96;71.45;100863.97;6338532;28;20453;-75
2021/12/04 13:40:06;;;;;;;2.30;2.20;;;;;;;-0.99;71.27;100868.75;6337116;28;20274;-75
2021/12/04 13:43:15;;;;;;;2.97;2.13;;;;;;;-0.80;70.75;100874.13;6336977;28;20494;-75
2021/12/04 13:46:21;;;;;;;2.00;2.00;;;;;;;-0.89;71.48;100874.94;6336409;28;20469;-77
2021/12/04 13:49:32;;;;;;;2.10;2.00;;;;;;;-0.82;70.97;100878.75;6336727;28;20254;-75
2021/12/04 13:52:36;;;;;;;2.33;1.70;;;;;;;-0.97;71.07;100882.84;6336447;28;20499;-75
2021/12/04 13:55:46;;;;;;;1.97;1.97;;;;;;;-0.99;71.24;100879.47;6337994;28;20193;-75
2021/12/04 13:58:54;;;;;;;1.90;1.90;;;;;;;-1.05;70.87;100880.06;6336186;28;20250;-75
2021/12/04 14:01:59;;;;;;;2.43;2.33;;;;;;;-1.34;71.74;100891.59;6337588;28;20237;-75
2021/12/04 14:05:08;;;;;;;2.10;2.00;;;;;;;-1.18;70.95;100884.84;6337222;28;20186;-76
2021/12/04 14:08:16;;;;;;;1.80;1.80;;;;;;;-1.21;71.00;100879.78;6337814;28;20187;-75
2021/12/04 14:11:28;;;;;;;2.00;2.00;;;;;;;-1.30;72.14;100887.66;6336268;28;20244;-75
2021/12/04 14:14:35;;;;;;;1.90;1.90;;;;;;;-1.27;70.88;100887.38;6337456;28;20183;-75
2021/12/04 14:17:41;;;;;;;2.00;1.90;;;;;;;-1.16;70.51;100888.22;6337429;28;20192;-75
2021/12/04 14:20:49;;;;;;;2.10;2.10;;;;;;;-1.26;70.67;100889.06;6336658;28;20214;-76
2021/12/04 14:23:53;;;;;;;1.97;1.87;;;;;;;-1.41;71.35;100890.44;6337049;28;20186;-76
2021/12/04 14:27:00;;;;;;;1.87;1.87;;;;;;;-1.38;72.00;100897.34;6336694;28;20286;-76
2021/12/04 14:30:09;;;;;;;2.20;2.17;;;;;;;-1.30;70.99;100909.06;6335947;28;20527;-76
2021/12/04 14:33:23;;;;;;;2.00;2.00;;;;;;;-1.28;70.53;100915.13;6336052;28;20360;-76
2021/12/04 14:36:28;;;;;;;2.40;2.30;;;;;;;-1.27;70.67;100903.44;6337116;28;20258;-76
2021/12/04 14:39:33;;;;;;;2.50;2.40;;;;;;;-1.21;69.76;100911.91;6336551;28;20258;-76
2021/12/04 14:42:37;;;;;;;2.30;2.30;;;;;;;-1.18;70.25;100916.97;6337079;28;20254;-76
2021/12/04 14:45:46;;;;;;;2.30;2.30;;;;;;;-1.32;70.55;100927.09;6336992;28;20217;-76
2021/12/04 14:48:54;;;;;;;2.47;2.27;;;;;;;-1.39;71.01;100923.25;6335757;28;20216;-75
2021/12/04 14:51:58;;;;;;;1.97;1.97;;;;;;;-1.17;70.74;100919.50;6337404;28;20194;-76
2021/12/04 14:55:14;;;;;;;2.10;2.10;;;;;;;-1.23;70.81;100927.25;6335735;28;20350;-76
2021/12/04 14:58:22;;;;;;;2.30;2.30;;;;;;;-1.42;70.87;100931.59;6337068;28;20186;-76
2021/12/04 15:01:34;;;;;;;2.53;2.43;;;;;;;-1.35;71.52;100932.72;6337015;28;20285;-75
2021/12/04 15:04:41;;;;;;;2.20;2.13;;;;;;;-1.56;71.32;100945.34;6339700;28;20190;-76
2021/12/04 15:07:45;;;;;;;5.70;2.40;;;;;;;-1.32;71.02;100943.16;6342151;28;20189;-76
2021/12/04 15:11:14;;;;;;;4.40;2.20;;;;;;;-1.35;70.99;100948.78;6341675;28;20190;-75
2021/12/04 15:14:31;;;;;;;2.67;2.47;;;;;;;-1.43;71.66;100962.00;6340630;28;20186;-76
2021/12/04 15:17:35;;;;;;;2.57;2.47;;;;;;;-1.42;70.84;100961.03;6340748;28;20373;-76
2021/12/04 15:20:48;;;;;;;2.30;2.20;;;;;;;-1.47;71.18;100959.75;6341497;28;20210;-76
2021/12/04 15:23:55;;;;;;;2.60;2.40;;;;;;;-1.32;71.34;100969.94;6340136;28;20254;-76
2021/12/04 15:27:07;;;;;;;2.23;2.13;;;;;;;-1.37;70.79;100964.16;6340544;28;20282;-76
2021/12/04 15:30:15;;;;;;;2.17;2.13;;;;;;;-1.43;71.60;100959.31;6340158;28;20190;-76
2021/12/04 15:33:26;;;;;;;2.93;2.73;;;;;;;-1.38;71.40;100966.94;6340140;28;20400;-76
2021/12/04 15:36:36;;;;;;;2.90;2.80;;;;;;;-1.38;71.77;100958.91;6340117;28;20418;-76
2021/12/04 15:39:56;;;;;;;3.23;2.97;;;;;;;-1.35;71.43;100970.19;6340756;28;20225;-77
2021/12/04 15:43:09;;;;;;;2.50;2.40;;;;;;;-1.34;71.24;100971.91;6341237;28;20185;-76
2021/12/04 15:46:20;;;;;;;2.93;2.73;;;;;;;-1.27;71.65;100983.75;6339944;28;20198;-77
2021/12/04 15:52:58;;;;;;;3.10;3.00;;;;;;;-1.32;71.35;101002.06;6332963;28;20213;-76
2021/12/04 15:56:02;;;;;;;2.60;2.40;;;;;;;-1.59;72.17;100993.78;6339494;28;20344;-76
2021/12/04 15:59:07;;;;;;;3.03;2.73;;;;;;;-1.62;72.13;101002.09;6340463;28;20193;-76
2021/12/04 16:02:15;;;;;;;2.80;2.70;;;;;;;-1.55;72.06;101015.78;6339116;28;20213;-76
2021/12/04 16:05:23;;;;;;;2.77;2.57;;;;;;;-1.49;72.18;101010.72;6340718;28;20253;-76
2021/12/04 16:08:31;;;;;;;3.33;2.90;;;;;;;-1.52;72.62;101008.34;6340191;28;20186;-76
2021/12/04 16:11:47;;;;;;;5.83;3.17;;;;;;;-1.54;72.23;101017.47;6339688;28;20220;-76
2021/12/04 16:14:54;;;;;;;3.00;2.90;;;;;;;-1.53;72.71;101011.97;6339722;28;20247;-76
2021/12/04 16:17:59;;;;;;;5.30;3.03;;;;;;;-1.61;73.38;101022.50;6339697;28;20249;-76
2021/12/04 16:21:03;;;;;;;2.70;2.50;;;;;;;-1.58;73.01;101032.09;6339144;28;20225;-76
2021/12/04 16:24:12;;;;;;;3.70;3.40;;;;;;;-1.73;73.29;101031.59;6339108;28;20242;-76
2021/12/04 16:27:24;;;;;;;3.23;3.13;;;;;;;-1.89;74.24;101041.94;6338924;28;20425;-76
2021/12/04 16:30:58;;;;;;;3.30;3.10;;;;;;;-1.78;74.09;101044.53;6340201;28;20197;-75
2021/12/04 16:35:02;;;;;;;3.23;3.00;;;;;;;-1.57;73.74;101044.50;6339741;28;20283;-76
2021/12/04 16:37:37;;;;;;;4.83;2.80;;;;;;;-1.66;74.14;101046.13;6338767;28;20209;-76
2021/12/04 16:40:45;;;;;;;5.07;3.50;;;;;;;-1.49;73.50;101055.38;6338692;28;20183;-74
2021/12/04 16:43:49;;;;;;;3.53;3.23;;;;;;;-1.60;73.75;101056.31;6340018;28;20258;-75
2021/12/04 16:46:55;;;;;;;3.63;2.93;;;;;;;-1.75;74.41;101057.66;6339625;28;20245;-75
2021/12/04 16:50:00;;;;;;;3.33;2.90;;;;;;;-1.64;74.80;101065.56;6339883;28;20249;-74
2021/12/04 16:56:36;;;;;;;3.00;2.83;;;;;;;-1.63;75.04;101077.97;6339647;28;20213;-74
2021/12/04 16:59:41;;;;;;;2.60;2.43;;;;;;;-1.64;74.98;101078.09;6338102;28;20472;-74
2021/12/04 17:02:45;;;;;;;2.70;2.70;;;;;;;-1.96;75.35;101080.88;6337952;28;20210;-75